Time;durP1;ratioP1;P1;durP2;ratioP2;P2;SDS_P1;SDS_P2;PMS_P1;PMS_P2;Temp;Humidity;BMP_temperature;BMP_pressure;BME280_temperature;BME280_humidity;BME280_pressure;Samples;Min_cycle;Max_cycle;Signal;HPM_P1;HPM_P2
2021/05/15 00:01:54;;;;;;;28.13;12.85;;;12.30;99.90;;;;;;4870460;29;20044;-83
2021/05/15 00:04:21;;;;;;;24.27;13.18;;;11.40;99.90;;;;;;4899157;29;20044;-83
2021/05/15 00:06:48;;;;;;;22.27;13.13;;;11.40;99.90;;;;;;4908146;29;20055;-83
2021/05/15 00:09:14;;;;;;;24.38;11.88;;;11.40;99.90;;;;;;4903751;29;20043;-84
2021/05/15 00:11:41;;;;;;;22.65;13.07;;;11.50;99.90;;;;;;4910526;29;20055;-84
2021/05/15 00:14:07;;;;;;;24.08;13.23;;;11.40;99.90;;;;;;4911712;29;20055;-84
2021/05/15 00:16:34;;;;;;;24.00;12.35;;;11.40;99.90;;;;;;4910882;29;20048;-84
2021/05/15 00:19:01;;;;;;;20.88;12.88;;;11.30;99.90;;;;;;4911250;29;20059;-84
2021/05/15 00:21:27;;;;;;;20.70;11.80;;;11.30;99.90;;;;;;4894708;29;20058;-83
2021/05/15 00:23:54;;;;;;;22.73;12.27;;;11.30;99.90;;;;;;4904093;29;20040;-84
2021/05/15 00:26:21;;;;;;;22.27;13.13;;;11.20;99.90;;;;;;4901946;29;20415;-84
2021/05/15 00:28:47;;;;;;;22.10;13.35;;;11.30;99.90;;;;;;4904127;29;20051;-83
2021/05/15 00:31:14;;;;;;;30.08;14.98;;;11.30;99.90;;;;;;4894373;29;20488;-83
2021/05/15 00:33:40;;;;;;;28.05;13.00;;;11.30;99.90;;;;;;4910752;29;20816;-84
2021/05/15 00:36:07;;;;;;;24.23;12.77;;;11.30;99.90;;;;;;4898390;29;20051;-84
2021/05/15 00:38:34;;;;;;;26.95;13.75;;;11.20;99.90;;;;;;4905031;29;20041;-84
2021/05/15 00:41:01;;;;;;;27.80;13.00;;;11.20;99.90;;;;;;4911144;29;20436;-84
2021/05/15 00:43:28;;;;;;;28.35;15.00;;;11.20;99.90;;;;;;4908967;29;20052;-84
2021/05/15 00:45:55;;;;;;;25.33;14.70;;;11.20;99.90;;;;;;4893402;29;20036;-83
2021/05/15 00:48:22;;;;;;;27.60;13.38;;;11.10;99.90;;;;;;4884436;29;20043;-83
2021/05/15 00:50:50;;;;;;;21.67;12.80;;;11.20;99.90;;;;;;4897299;29;20051;-85
2021/05/15 00:53:18;;;;;;;27.42;12.05;;;11.10;99.90;;;;;;4901541;29;20476;-83
2021/05/15 00:55:45;;;;;;;24.10;12.40;;;11.10;99.90;;;;;;4894211;29;20044;-84
2021/05/15 00:58:13;;;;;;;24.98;13.32;;;11.10;99.90;;;;;;4908268;29;20040;-83
2021/05/15 01:00:39;;;;;;;22.17;11.50;;;11.00;99.90;;;;;;4909639;29;20032;-84
2021/05/15 01:03:07;;;;;;;22.00;11.63;;;11.10;99.90;;;;;;4901101;29;20481;-84
2021/05/15 01:05:33;;;;;;;24.05;9.90;;;10.90;99.90;;;;;;4886216;29;20032;-84
2021/05/15 01:08:01;;;;;;;21.38;11.63;;;10.90;99.90;;;;;;4900680;29;20056;-83
2021/05/15 01:10:28;;;;;;;22.70;11.13;;;10.80;99.90;;;;;;4893405;29;20051;-84
2021/05/15 01:12:56;;;;;;;21.40;12.43;;;10.70;99.90;;;;;;4906275;29;20048;-83
2021/05/15 01:15:26;;;;;;;23.30;12.40;;;11.90;99.90;;;;;;4890398;29;20041;-83
2021/05/15 01:17:54;;;;;;;17.88;10.88;;;10.70;99.90;;;;;;4902085;29;20044;-84
2021/05/15 01:20:23;;;;;;;26.33;12.40;;;10.70;99.90;;;;;;4889736;29;20044;-84
2021/05/15 01:22:50;;;;;;;22.02;12.15;;;10.60;99.90;;;;;;4888074;29;20067;-83
2021/05/15 01:25:17;;;;;;;26.20;12.82;;;10.60;99.90;;;;;;4895175;29;20551;-84
2021/05/15 01:27:44;;;;;;;30.25;13.05;;;10.90;99.90;;;;;;4894006;29;20055;-84
2021/05/15 01:30:12;;;;;;;22.15;12.75;;;10.50;99.90;;;;;;4907932;29;20051;-84
2021/05/15 01:32:42;;;;;;;23.77;13.65;;;10.40;99.90;;;;;;4898972;29;20040;-84
2021/05/15 01:35:10;;;;;;;25.85;13.85;;;10.30;99.90;;;;;;4891399;29;20044;-84
2021/05/15 01:37:37;;;;;;;26.95;13.35;;;10.60;99.90;;;;;;4901503;29;20048;-84
2021/05/15 01:40:06;;;;;;;23.75;14.27;;;10.30;99.90;;;;;;4910876;29;20067;-83
2021/05/15 01:42:33;;;;;;;26.08;14.27;;;10.20;99.90;;;;;;4889159;29;20495;-83
2021/05/15 01:45:00;;;;;;;28.65;14.57;;;10.60;99.90;;;;;;4909503;29;20044;-83
2021/05/15 01:47:27;;;;;;;28.92;15.65;;;10.10;99.90;;;;;;4911377;29;20040;-83
2021/05/15 01:49:54;;;;;;;26.35;15.10;;;10.40;99.90;;;;;;4896846;29;20036;-83
2021/05/15 01:52:20;;;;;;;25.02;15.43;;;10.10;99.90;;;;;;4901233;29;20039;-84
2021/05/15 01:54:47;;;;;;;25.38;14.70;;;10.10;99.90;;;;;;4904290;29;20040;-83
2021/05/15 01:57:13;;;;;;;30.05;17.02;;;10.10;99.90;;;;;;4925151;29;20435;-84
2021/05/15 01:59:40;;;;;;;31.98;17.45;;;11.00;99.90;;;;;;4928191;29;20416;-83
2021/05/15 02:02:07;;;;;;;36.53;17.90;;;10.00;99.90;;;;;;4911188;29;20063;-83
2021/05/15 02:04:33;;;;;;;29.42;16.75;;;10.30;99.90;;;;;;4901963;29;20064;-85
2021/05/15 02:07:00;;;;;;;26.25;14.77;;;10.20;99.90;;;;;;4889781;29;20041;-82
2021/05/15 02:09:26;;;;;;;28.17;18.02;;;9.80;99.90;;;;;;4898499;29;20043;-83
2021/05/15 02:11:53;;;;;;;33.28;19.33;;;11.30;99.90;;;;;;4890379;29;20032;-83
2021/05/15 02:14:20;;;;;;;29.48;16.88;;;9.90;99.90;;;;;;4886824;29;20053;-83
2021/05/15 02:16:46;;;;;;;29.85;16.05;;;9.90;99.90;;;;;;4901664;29;20040;-83
2021/05/15 02:19:13;;;;;;;35.55;18.98;;;9.90;99.90;;;;;;4895308;29;20028;-84
2021/05/15 02:21:39;;;;;;;35.72;19.02;;;10.00;99.90;;;;;;4907365;29;20052;-84
2021/05/15 02:24:07;;;;;;;30.58;18.15;;;10.60;99.90;;;;;;4898224;29;20056;-84
2021/05/15 02:26:33;;;;;;;32.50;17.63;;;9.90;99.90;;;;;;4898392;29;20045;-84
2021/05/15 02:29:00;;;;;;;34.83;19.40;;;10.50;99.90;;;;;;4903245;29;20060;-84
2021/05/15 02:31:26;;;;;;;31.70;18.17;;;10.00;99.90;;;;;;4898581;29;20048;-85
2021/05/15 02:33:53;;;;;;;30.27;18.58;;;9.90;99.90;;;;;;4900229;29;20028;-84
2021/05/15 02:36:19;;;;;;;35.05;19.63;;;9.90;99.90;;;;;;4899153;29;20064;-83
2021/05/15 02:38:46;;;;;;;32.75;19.92;;;11.00;99.90;;;;;;4878054;29;20035;-83
2021/05/15 02:41:12;;;;;;;33.53;19.48;;;9.90;99.90;;;;;;4887680;29;20134;-84
2021/05/15 02:43:39;;;;;;;36.10;20.35;;;9.90;99.90;;;;;;4903934;29;20044;-84
2021/05/15 02:46:06;;;;;;;32.00;18.48;;;9.90;99.90;;;;;;4908765;29;20044;-83
2021/05/15 02:48:32;;;;;;;33.38;19.63;;;9.90;99.90;;;;;;4893266;29;20060;-83
2021/05/15 02:50:59;;;;;;;35.78;18.70;;;9.90;99.90;;;;;;4901391;29;20412;-84
2021/05/15 02:53:25;;;;;;;35.20;19.00;;;9.80;99.90;;;;;;4896819;29;20036;-84
2021/05/15 02:55:52;;;;;;;35.38;19.40;;;9.90;99.90;;;;;;4901607;29;20075;-83
2021/05/15 02:58:18;;;;;;;31.60;18.23;;;9.80;99.90;;;;;;4895712;29;20056;-84
2021/05/15 03:00:45;;;;;;;34.03;19.38;;;9.90;99.90;;;;;;4896011;29;20040;-84
2021/05/15 03:03:12;;;;;;;39.92;18.75;;;9.90;99.90;;;;;;4899977;29;20059;-84
2021/05/15 03:05:38;;;;;;;34.33;21.23;;;9.90;99.90;;;;;;4882107;29;20032;-83
2021/05/15 03:08:05;;;;;;;29.25;18.40;;;9.90;99.90;;;;;;4904345;29;20059;-85
2021/05/15 03:10:31;;;;;;;33.95;19.23;;;9.90;99.90;;;;;;4911290;29;20046;-83
2021/05/15 03:12:58;;;;;;;32.35;18.70;;;11.20;99.90;;;;;;4913829;29;20056;-84
2021/05/15 03:15:25;;;;;;;39.15;20.38;;;9.90;99.90;;;;;;4914543;29;20053;-83
2021/05/15 03:17:52;;;;;;;37.17;19.35;;;10.00;99.90;;;;;;4914569;29;20051;-84
2021/05/15 03:20:22;;;;;;;30.98;18.73;;;10.00;99.90;;;;;;4913446;29;20048;-83
2021/05/15 03:22:49;;;;;;;36.25;20.90;;;10.00;99.90;;;;;;4904413;29;20048;-83
2021/05/15 03:25:17;;;;;;;37.83;19.60;;;10.00;99.90;;;;;;4914702;29;20036;-82
2021/05/15 03:27:44;;;;;;;32.10;18.80;;;10.00;99.90;;;;;;4894722;29;20045;-84
2021/05/15 03:30:12;;;;;;;30.25;19.17;;;10.10;99.90;;;;;;4896864;29;20044;-84
2021/05/15 03:32:41;;;;;;;34.47;19.73;;;10.00;99.90;;;;;;4880384;29;20048;-83
2021/05/15 03:35:09;;;;;;;29.80;19.35;;;9.90;99.90;;;;;;4897808;29;20508;-83
2021/05/15 03:37:36;;;;;;;32.78;20.73;;;10.00;99.90;;;;;;4876965;29;20538;-83
2021/05/15 03:40:03;;;;;;;29.10;17.55;;;10.00;99.90;;;;;;4913140;29;20036;-84
2021/05/15 03:42:30;;;;;;;32.17;19.77;;;10.00;99.90;;;;;;4887009;29;20235;-84
2021/05/15 03:44:57;;;;;;;34.55;19.67;;;10.00;99.90;;;;;;4908648;29;20092;-83
2021/05/15 03:47:23;;;;;;;35.88;20.30;;;10.00;99.90;;;;;;4909130;29;20784;-83
2021/05/15 03:49:50;;;;;;;36.22;20.50;;;10.00;99.90;;;;;;4912872;29;20047;-83
2021/05/15 03:52:16;;;;;;;37.63;20.85;;;10.00;99.90;;;;;;4913753;29;20044;-83
2021/05/15 03:54:43;;;;;;;36.75;20.20;;;10.10;99.90;;;;;;4895609;29;20028;-84
2021/05/15 03:57:09;;;;;;;32.92;18.27;;;10.10;99.90;;;;;;4902308;29;20052;-83
2021/05/15 03:59:36;;;;;;;30.88;19.33;;;10.10;99.90;;;;;;4910841;29;20036;-83
2021/05/15 04:02:03;;;;;;;31.70;17.85;;;10.10;99.90;;;;;;4913942;29;20533;-83
2021/05/15 04:04:29;;;;;;;35.30;19.95;;;10.10;99.90;;;;;;4889176;29;20052;-84
2021/05/15 04:06:56;;;;;;;37.28;20.88;;;10.20;99.90;;;;;;4898250;29;20444;-84
2021/05/15 04:09:22;;;;;;;35.75;20.30;;;10.30;99.90;;;;;;4900476;29;20045;-84
2021/05/15 04:11:49;;;;;;;35.30;19.30;;;10.20;99.90;;;;;;4896236;29;20052;-84
2021/05/15 04:17:02;;;;;;;31.58;17.98;;;10.30;99.90;;;;;;4910667;29;20032;-84
2021/05/15 04:19:29;;;;;;;37.38;20.83;;;10.20;99.90;;;;;;4891410;29;20044;-83
2021/05/15 04:21:56;;;;;;;32.97;19.50;;;10.50;99.90;;;;;;4908078;29;20067;-84
2021/05/15 04:24:26;;;;;;;35.08;19.10;;;10.20;99.90;;;;;;4906306;29;20036;-84
2021/05/15 04:27:04;;;;;;;34.55;19.08;;;10.70;99.90;;;;;;4913327;29;20033;-84
2021/05/15 04:29:31;;;;;;;33.05;19.58;;;10.10;99.90;;;;;;4898895;29;20040;-83
2021/05/15 04:31:58;;;;;;;29.88;18.70;;;10.10;99.90;;;;;;4908796;29;20040;-84
2021/05/15 04:34:28;;;;;;;32.40;18.92;;;11.10;99.90;;;;;;4912690;29;20040;-83
2021/05/15 04:36:57;;;;;;;38.23;23.00;;;10.20;99.90;;;;;;4912380;29;20056;-84
2021/05/15 04:39:25;;;;;;;34.90;19.92;;;10.20;99.90;;;;;;4902093;29;20055;-84
2021/05/15 04:41:52;;;;;;;33.42;18.17;;;10.20;99.90;;;;;;4896184;29;20044;-83
2021/05/15 04:44:19;;;;;;;38.03;21.38;;;10.20;99.90;;;;;;4878722;29;20491;-84
2021/05/15 04:46:45;;;;;;;34.97;21.50;;;10.20;99.90;;;;;;4912383;29;20036;-83
2021/05/15 04:49:12;;;;;;;32.63;19.63;;;10.20;99.90;;;;;;4908403;29;20044;-85
2021/05/15 04:51:40;;;;;;;33.22;20.58;;;10.20;99.90;;;;;;4899478;29;20051;-83
2021/05/15 04:54:08;;;;;;;31.92;18.88;;;11.00;99.90;;;;;;4908515;29;20052;-84
2021/05/15 04:56:35;;;;;;;36.60;19.67;;;10.20;99.90;;;;;;4899767;29;20719;-84
2021/05/15 04:59:03;;;;;;;34.47;20.92;;;10.30;99.90;;;;;;4893866;29;20059;-84
2021/05/15 05:01:29;;;;;;;31.42;18.92;;;10.30;99.90;;;;;;4910116;29;20407;-84
2021/05/15 05:03:56;;;;;;;36.08;20.20;;;10.30;99.90;;;;;;4901621;29;20039;-84
2021/05/15 05:06:24;;;;;;;35.25;19.10;;;10.30;99.90;;;;;;4887638;29;20044;-83
2021/05/15 05:08:50;;;;;;;39.97;20.02;;;10.50;99.90;;;;;;4891573;29;20051;-84
2021/05/15 05:11:17;;;;;;;33.40;19.20;;;10.30;99.90;;;;;;4907684;29;20460;-83
2021/05/15 05:13:43;;;;;;;34.45;21.23;;;10.30;99.90;;;;;;4889338;29;20043;-84
2021/05/15 05:16:10;;;;;;;37.75;22.08;;;10.30;99.90;;;;;;4908069;29;20048;-83
2021/05/15 05:18:36;;;;;;;35.28;21.63;;;10.50;99.90;;;;;;4909057;29;20032;-85
2021/05/15 05:21:03;;;;;;;37.55;21.40;;;10.30;99.90;;;;;;4901361;29;20048;-83
2021/05/15 05:23:29;;;;;;;32.38;19.88;;;10.30;99.90;;;;;;4900528;29;20063;-83
2021/05/15 05:25:56;;;;;;;37.80;19.88;;;10.30;99.90;;;;;;4909608;29;20052;-84
2021/05/15 05:28:33;;;;;;;35.55;20.48;;;10.30;99.90;;;;;;4904631;29;20044;-83
2021/05/15 05:30:59;;;;;;;35.30;20.48;;;10.30;99.90;;;;;;4907673;29;20078;-83
2021/05/15 05:33:26;;;;;;;33.33;20.92;;;11.00;99.90;;;;;;4904657;29;20040;-83
2021/05/15 05:35:52;;;;;;;38.53;21.40;;;10.40;99.90;;;;;;4897838;29;20524;-83
2021/05/15 05:38:19;;;;;;;33.53;19.33;;;10.40;99.90;;;;;;4893157;29;20044;-83
2021/05/15 05:40:45;;;;;;;32.03;20.30;;;10.40;99.90;;;;;;4909419;29;20040;-83
2021/05/15 05:43:12;;;;;;;36.20;19.42;;;10.50;99.90;;;;;;4905682;29;20044;-83
2021/05/15 05:45:39;;;;;;;32.13;21.35;;;10.40;99.90;;;;;;4904545;29;20714;-84
2021/05/15 05:48:06;;;;;;;35.65;19.20;;;10.30;99.90;;;;;;4908841;29;20502;-84
2021/05/15 05:50:33;;;;;;;33.58;20.05;;;10.50;99.90;;;;;;4912005;29;20040;-83
2021/05/15 05:52:59;;;;;;;33.25;19.27;;;10.50;99.90;;;;;;4911991;29;20063;-83
2021/05/15 05:55:26;;;;;;;34.60;19.55;;;10.90;99.90;;;;;;4908627;29;20063;-83
2021/05/15 05:57:52;;;;;;;34.35;18.20;;;10.50;99.90;;;;;;4900424;29;20040;-84
2021/05/15 06:00:19;;;;;;;30.55;17.83;;;10.50;99.90;;;;;;4905635;29;20053;-84
2021/05/15 06:02:46;;;;;;;30.05;19.00;;;10.50;99.90;;;;;;4904410;29;20052;-84
2021/05/15 06:05:12;;;;;;;30.60;18.95;;;11.30;99.90;;;;;;4899329;29;20036;-84
2021/05/15 06:07:39;;;;;;;31.83;17.83;;;10.50;99.90;;;;;;4909596;29;20055;-84
2021/05/15 06:10:06;;;;;;;29.02;17.25;;;10.40;99.90;;;;;;4914859;29;20044;-84
2021/05/15 06:12:33;;;;;;;32.25;18.70;;;10.50;99.90;;;;;;4897293;29;20608;-84
2021/05/15 06:15:01;;;;;;;30.55;17.60;;;10.50;99.90;;;;;;4916395;29;20139;-84
2021/05/15 06:17:27;;;;;;;30.10;17.40;;;10.80;99.90;;;;;;4901574;29;20052;-83
2021/05/15 06:19:54;;;;;;;27.58;17.27;;;10.50;99.90;;;;;;4909384;29;20036;-84
2021/05/15 06:22:20;;;;;;;26.65;14.80;;;10.60;99.90;;;;;;4915290;29;20063;-84
2021/05/15 06:24:47;;;;;;;30.33;18.05;;;10.60;99.90;;;;;;4904321;29;20072;-84
2021/05/15 06:27:13;;;;;;;28.60;15.40;;;10.70;99.90;;;;;;4901767;29;20043;-84
2021/05/15 06:29:40;;;;;;;32.85;15.77;;;10.60;99.90;;;;;;4898328;29;20776;-84
2021/05/15 06:32:07;;;;;;;22.67;14.35;;;11.10;99.90;;;;;;4901512;29;20044;-85
2021/05/15 06:34:33;;;;;;;26.85;14.30;;;10.90;99.90;;;;;;4897205;29;20590;-84
2021/05/15 06:37:01;;;;;;;24.70;16.50;;;10.70;99.90;;;;;;4907829;29;20052;-85
2021/05/15 06:39:27;;;;;;;28.90;15.90;;;10.70;99.90;;;;;;4897257;29;20040;-84
2021/05/15 06:41:54;;;;;;;23.73;14.77;;;10.80;99.90;;;;;;4894895;29;20055;-85
2021/05/15 06:44:20;;;;;;;27.27;16.30;;;10.80;99.90;;;;;;4912389;29;20047;-85
2021/05/15 06:46:47;;;;;;;26.70;14.40;;;10.80;99.90;;;;;;4909204;29;20044;-84
2021/05/15 06:49:13;;;;;;;27.25;14.90;;;10.90;99.90;;;;;;4904379;29;20032;-84
2021/05/15 06:51:40;;;;;;;26.02;13.70;;;10.90;99.90;;;;;;4885125;29;20044;-84
2021/05/15 06:54:07;;;;;;;26.77;15.30;;;10.90;99.90;;;;;;4884835;29;20060;-84
2021/05/15 06:56:33;;;;;;;24.75;14.73;;;10.90;99.90;;;;;;4903481;29;20036;-84
2021/05/15 06:59:00;;;;;;;27.55;14.30;;;10.90;99.90;;;;;;4920916;29;20045;-84
2021/05/15 07:01:26;;;;;;;25.45;13.40;;;10.90;99.90;;;;;;4907363;29;20653;-83
2021/05/15 07:03:53;;;;;;;22.70;13.43;;;11.00;99.90;;;;;;4921011;29;20053;-83
2021/05/15 07:06:19;;;;;;;26.33;14.15;;;11.00;99.90;;;;;;4922557;29;20060;-83
2021/05/15 07:08:46;;;;;;;29.15;14.48;;;11.00;99.90;;;;;;4921942;29;20048;-83
2021/05/15 07:11:13;;;;;;;22.92;12.77;;;11.00;99.90;;;;;;4904115;29;20049;-84
2021/05/15 07:13:39;;;;;;;24.92;14.18;;;11.10;99.90;;;;;;4533887;29;10000014;-84
2021/05/15 07:16:07;;;;;;;23.90;13.25;;;11.10;99.90;;;;;;4891937;29;20048;-84
2021/05/15 07:18:33;;;;;;;24.10;13.27;;;11.10;99.90;;;;;;4912261;29;20059;-85
2021/05/15 07:21:00;;;;;;;24.55;14.07;;;11.70;99.90;;;;;;4906896;29;20051;-84
2021/05/15 07:23:27;;;;;;;23.02;13.02;;;11.30;99.90;;;;;;4889074;29;20043;-84
2021/05/15 07:25:53;;;;;;;26.45;11.43;;;11.20;99.90;;;;;;4909239;29;20110;-84
2021/05/15 07:28:20;;;;;;;20.90;12.07;;;12.30;99.90;;;;;;4907438;29;20388;-84
2021/05/15 07:30:46;;;;;;;20.48;11.00;;;11.40;99.90;;;;;;4897180;29;20048;-84
2021/05/15 07:33:13;;;;;;;19.60;10.75;;;11.40;99.90;;;;;;4904049;29;20507;-85
2021/05/15 07:35:39;;;;;;;20.45;11.93;;;11.40;99.90;;;;;;4903528;29;20040;-84
2021/05/15 07:38:06;;;;;;;20.23;11.57;;;11.50;99.90;;;;;;4912355;29;20044;-85
2021/05/15 07:40:33;;;;;;;18.70;10.48;;;11.60;99.90;;;;;;4910082;29;20063;-85
2021/05/15 07:43:00;;;;;;;18.02;10.13;;;11.60;99.90;;;;;;4886414;29;20053;-86
2021/05/15 07:45:26;;;;;;;23.75;12.60;;;11.70;99.90;;;;;;4860722;29;20032;-84
2021/05/15 07:47:53;;;;;;;19.83;9.23;;;11.70;99.90;;;;;;4897991;29;20044;-85
2021/05/15 07:50:20;;;;;;;13.90;8.32;;;11.70;99.90;;;;;;4909587;29;20349;-85
2021/05/15 07:52:46;;;;;;;24.48;9.70;;;11.80;99.90;;;;;;4894059;29;20028;-85
2021/05/15 07:55:13;;;;;;;14.18;7.95;;;11.90;99.90;;;;;;4899127;29;20055;-85
2021/05/15 07:57:40;;;;;;;18.77;10.13;;;12.00;99.90;;;;;;4901534;29;20044;-84
2021/05/15 08:00:07;;;;;;;18.48;8.85;;;12.00;99.90;;;;;;4881566;29;20051;-84
2021/05/15 08:02:41;;;;;;;20.10;8.48;;;12.10;99.90;;;;;;4873644;29;20488;-84
2021/05/15 08:05:09;;;;;;;18.17;8.68;;;12.20;99.90;;;;;;4892221;29;20051;-84
2021/05/15 08:07:37;;;;;;;14.15;8.43;;;12.30;99.90;;;;;;4890236;29;20481;-85
2021/05/15 08:10:08;;;;;;;12.93;7.78;;;12.40;99.90;;;;;;4895263;29;20400;-84
2021/05/15 08:12:36;;;;;;;12.20;7.00;;;12.40;99.90;;;;;;4890007;29;20063;-84
2021/05/15 08:15:06;;;;;;;18.50;8.95;;;12.50;99.90;;;;;;4903569;29;20049;-84
2021/05/15 08:17:34;;;;;;;13.77;7.15;;;12.60;99.90;;;;;;4879248;29;20052;-85
2021/05/15 08:20:03;;;;;;;11.48;6.32;;;12.60;99.90;;;;;;4878963;29;20103;-84
2021/05/15 08:22:29;;;;;;;9.05;5.32;;;12.70;99.90;;;;;;4879361;29;20028;-85
2021/05/15 08:25:00;;;;;;;15.65;5.72;;;12.80;99.90;;;;;;4906645;29;20048;-84
2021/05/15 08:27:26;;;;;;;9.52;5.45;;;12.90;99.90;;;;;;4892609;29;20044;-85
2021/05/15 08:29:53;;;;;;;10.77;4.70;;;13.00;99.90;;;;;;4908566;29;20434;-84
2021/05/15 08:32:20;;;;;;;7.20;3.67;;;13.00;99.90;;;;;;4909339;29;20035;-85
2021/05/15 08:34:47;;;;;;;7.45;3.67;;;13.10;99.90;;;;;;4911004;29;20642;-85
2021/05/15 08:37:13;;;;;;;7.68;3.53;;;13.10;99.90;;;;;;4896034;29;20059;-85
2021/05/15 08:39:40;;;;;;;7.95;4.03;;;13.20;99.90;;;;;;4893918;29;20040;-85
2021/05/15 08:42:06;;;;;;;8.43;4.18;;;13.10;99.90;;;;;;4892784;29;20051;-84
2021/05/15 08:44:36;;;;;;;11.50;3.90;;;13.10;99.90;;;;;;4885843;29;20412;-85
2021/05/15 08:47:04;;;;;;;8.40;3.75;;;13.20;99.90;;;;;;4888588;29;20032;-85
2021/05/15 08:49:36;;;;;;;11.10;3.33;;;13.20;99.90;;;;;;4890591;29;20755;-84
2021/05/15 08:52:02;;;;;;;9.98;4.50;;;13.20;99.90;;;;;;4883216;29;20404;-84
2021/05/15 08:54:29;;;;;;;9.55;3.38;;;13.30;99.90;;;;;;4903029;29;20075;-84
2021/05/15 08:56:56;;;;;;;12.35;3.88;;;13.40;99.90;;;;;;4906876;29;20044;-84
2021/05/15 08:59:23;;;;;;;8.65;3.03;;;13.40;99.90;;;;;;4906545;29;20608;-84
2021/05/15 09:01:49;;;;;;;5.38;2.88;;;13.40;99.90;;;;;;4909544;29;20511;-84
2021/05/15 09:04:16;;;;;;;6.10;3.20;;;13.40;99.90;;;;;;4892227;29;20060;-85
2021/05/15 09:06:44;;;;;;;9.40;2.70;;;13.30;99.90;;;;;;4893075;29;20063;-84
2021/05/15 09:09:12;;;;;;;5.15;2.47;;;13.30;99.90;;;;;;4907095;29;20080;-84
2021/05/15 09:11:40;;;;;;;4.13;2.35;;;13.30;99.90;;;;;;4907151;29;20056;-84
2021/05/15 09:14:16;;;;;;;5.00;2.65;;;13.20;99.90;;;;;;4893062;29;20611;-84
2021/05/15 09:16:52;;;;;;;5.28;2.30;;;13.20;99.90;;;;;;4904525;29;20052;-84
2021/05/15 09:19:23;;;;;;;6.00;2.40;;;13.10;99.90;;;;;;4887343;29;20052;-84
2021/05/15 09:22:03;;;;;;;7.15;4.13;;;13.10;99.90;;;;;;4899440;29;20061;-85
2021/05/15 09:24:35;;;;;;;3.95;2.45;;;13.10;99.90;;;;;;4908747;29;20056;-85
2021/05/15 09:27:08;;;;;;;7.55;3.45;;;13.00;99.90;;;;;;4906112;29;20067;-84
2021/05/15 09:29:45;;;;;;;9.68;3.10;;;13.00;99.90;;;;;;4875029;29;20063;-84
2021/05/15 09:32:30;;;;;;;6.18;2.85;;;13.00;99.90;;;;;;4896350;29;20052;-85
2021/05/15 09:34:59;;;;;;;4.90;2.55;;;13.10;99.90;;;;;;4889982;29;20048;-84
2021/05/15 09:37:38;;;;;;;13.07;2.88;;;13.10;99.90;;;;;;4875954;29;20047;-84
2021/05/15 09:40:28;;;;;;;5.28;2.47;;;13.10;99.90;;;;;;4893528;29;20048;-85
2021/05/15 09:43:08;;;;;;;5.97;2.90;;;13.10;99.90;;;;;;4908125;29;20052;-84
2021/05/15 09:45:39;;;;;;;5.80;2.60;;;13.00;99.90;;;;;;4890623;29;20048;-84
2021/05/15 09:48:09;;;;;;;5.80;2.70;;;12.90;99.90;;;;;;4907067;29;20531;-85
2021/05/15 09:50:40;;;;;;;8.10;3.55;;;12.90;99.90;;;;;;4887148;29;20500;-86
2021/05/15 09:53:20;;;;;;;4.88;2.58;;;12.90;99.90;;;;;;4906827;29;20534;-84
2021/05/15 09:55:52;;;;;;;3.90;2.92;;;12.90;99.90;;;;;;4905194;29;20048;-85
2021/05/15 09:58:20;;;;;;;3.95;2.67;;;12.80;99.90;;;;;;4909454;29;20056;-84
2021/05/15 10:00:54;;;;;;;7.53;3.47;;;12.90;99.90;;;;;;4876919;29;20115;-85
2021/05/15 10:03:31;;;;;;;8.05;2.80;;;12.90;99.90;;;;;;4881710;29;20051;-88
2021/05/15 10:06:08;;;;;;;7.30;3.67;;;12.80;99.90;;;;;;4888452;29;20067;-84
2021/05/15 10:08:39;;;;;;;11.38;4.03;;;12.80;99.90;;;;;;4888049;29;20044;-85
2021/05/15 10:11:08;;;;;;;12.20;3.67;;;12.80;99.90;;;;;;4912720;29;20063;-84
2021/05/15 10:13:38;;;;;;;7.68;4.05;;;12.80;99.90;;;;;;4895830;29;20067;-84
2021/05/15 10:16:06;;;;;;;7.10;3.35;;;12.90;99.90;;;;;;4912436;29;20059;-85
2021/05/15 10:18:38;;;;;;;11.75;4.63;;;12.80;99.90;;;;;;4895194;29;20527;-84
2021/05/15 10:21:06;;;;;;;10.13;4.10;;;12.90;99.90;;;;;;4893512;29;20063;-85
2021/05/15 10:23:42;;;;;;;4.75;3.30;;;12.90;99.90;;;;;;4890513;29;20088;-84
2021/05/15 10:26:17;;;;;;;9.48;3.83;;;12.80;99.90;;;;;;4902133;29;20067;-85
2021/05/15 10:29:01;;;;;;;5.03;3.30;;;12.80;99.90;;;;;;4888832;29;20539;-85
2021/05/15 10:31:43;;;;;;;6.80;3.53;;;12.80;99.90;;;;;;4904959;29;20060;-84
2021/05/15 10:34:11;;;;;;;;;;;12.90;99.90;;;;;;4888894;29;20063;-85
2021/05/15 10:36:49;;;;;;;11.02;3.25;;;12.90;99.90;;;;;;4887614;29;20374;-84
2021/05/15 10:39:34;;;;;;;5.90;2.92;;;13.00;99.90;;;;;;4906272;29;20056;-84
2021/05/15 10:42:03;;;;;;;6.70;2.65;;;13.20;99.90;;;;;;4894360;29;20059;-85
2021/05/15 10:44:42;;;;;;;4.50;2.88;;;13.30;99.90;;;;;;4909921;29;20625;-85
2021/05/15 10:47:10;;;;;;;6.15;2.45;;;13.50;99.90;;;;;;4895224;29;20044;-85
2021/05/15 10:49:39;;;;;;;6.82;2.42;;;13.70;99.90;;;;;;4883142;29;20063;-85
2021/05/15 10:52:08;;;;;;;2.10;1.80;;;13.90;99.90;;;;;;4878764;29;20056;-85
2021/05/15 10:54:39;;;;;;;3.55;1.60;;;14.20;99.90;;;;;;4878883;29;20546;-85
2021/05/15 10:57:09;;;;;;;1.88;1.67;;;14.30;99.90;;;;;;4891650;29;20048;-85
2021/05/15 10:59:39;;;;;;;3.42;2.35;;;14.50;99.90;;;;;;4908529;29;20060;-85
2021/05/15 11:02:13;;;;;;;2.67;1.83;;;14.60;99.90;;;;;;4888835;29;20055;-84
2021/05/15 11:05:00;;;;;;;3.42;1.95;;;14.80;99.90;;;;;;4896976;29;20060;-85
2021/05/15 11:07:35;;;;;;;5.82;1.98;;;14.90;99.90;;;;;;4884966;29;20055;-85
2021/05/15 11:10:09;;;;;;;2.78;1.80;;;15.00;99.90;;;;;;4910114;29;20056;-85
2021/05/15 11:12:38;;;;;;;4.13;1.73;;;15.00;99.90;;;;;;4893444;29;20689;-84
2021/05/15 11:15:10;;;;;;;2.85;1.67;;;15.00;99.90;;;;;;4877171;29;20051;-85
2021/05/15 11:17:38;;;;;;;2.67;1.83;;;15.00;99.90;;;;;;4891296;29;20103;-84
2021/05/15 11:20:14;;;;;;;2.50;1.60;;;15.00;99.90;;;;;;4881632;29;20057;-84
2021/05/15 11:22:48;;;;;;;4.53;1.60;;;15.00;99.90;;;;;;4903177;29;20063;-84
2021/05/15 11:25:28;;;;;;;3.08;1.50;;;15.00;99.90;;;;;;4891813;29;20064;-84
2021/05/15 11:28:04;;;;;;;3.83;1.50;;;15.00;99.90;;;;;;4893960;29;20734;-85
2021/05/15 11:30:36;;;;;;;3.08;1.30;;;14.90;99.90;;;;;;4885797;29;20052;-84
2021/05/15 11:33:09;;;;;;;3.80;1.45;;;14.80;99.90;;;;;;4894506;29;20056;-83
2021/05/15 11:35:40;;;;;;;2.45;1.67;;;14.80;99.90;;;;;;4907027;29;20060;-84
2021/05/15 11:38:09;;;;;;;2.55;1.63;;;14.70;99.90;;;;;;4903695;29;20056;-84
2021/05/15 11:40:40;;;;;;;2.85;1.55;;;14.70;99.90;;;;;;4906271;29;20060;-84
2021/05/15 11:43:09;;;;;;;3.22;1.35;;;14.70;99.90;;;;;;4906983;29;20680;-84
2021/05/15 11:45:37;;;;;;;2.25;1.20;;;14.70;99.90;;;;;;4894227;29;20051;-85
2021/05/15 11:48:22;;;;;;;2.25;1.40;;;14.60;99.90;;;;;;4908822;29;20055;-84
2021/05/15 11:51:10;;;;;;;3.67;2.63;;;14.60;99.90;;;;;;4912359;29;20063;-84
2021/05/15 11:53:50;;;;;;;3.20;1.40;;;14.50;99.90;;;;;;4910329;29;20060;-85
2021/05/15 11:56:23;;;;;;;2.10;1.02;;;14.40;99.90;;;;;;4893187;29;20059;-84
2021/05/15 11:58:56;;;;;;;3.13;1.27;;;14.30;99.90;;;;;;4911760;29;20055;-84
2021/05/15 12:01:30;;;;;;;2.05;0.98;;;14.20;99.90;;;;;;4902357;29;20048;-84
2021/05/15 12:04:07;;;;;;;1.58;0.95;;;14.10;99.90;;;;;;4912005;29;20500;-84
2021/05/15 12:06:35;;;;;;;1.23;1.15;;;14.00;99.90;;;;;;4907525;29;20057;-83
2021/05/15 12:09:18;;;;;;;2.53;1.40;;;14.00;99.90;;;;;;4904382;29;20087;-84
2021/05/15 12:11:47;;;;;;;2.42;1.40;;;13.90;99.90;;;;;;4881887;29;20056;-84
2021/05/15 12:14:19;;;;;;;1.45;1.30;;;13.80;99.90;;;;;;4909784;29;20052;-83
2021/05/15 12:16:47;;;;;;;4.40;1.17;;;13.40;99.90;;;;;;4894501;29;20047;-84
2021/05/15 12:19:24;;;;;;;1.80;1.10;;;13.70;99.90;;;;;;4875313;29;20917;-84
2021/05/15 12:22:11;;;;;;;1.40;1.30;;;13.60;99.90;;;;;;4891284;29;20087;-85
2021/05/15 12:24:43;;;;;;;3.10;1.60;;;13.70;99.90;;;;;;4907551;29;20060;-87
2021/05/15 12:27:19;;;;;;;2.58;1.38;;;13.70;99.90;;;;;;4912310;29;20495;-87
2021/05/15 12:30:03;;;;;;;2.58;1.60;;;13.90;99.90;;;;;;4879415;29;20044;-85
2021/05/15 12:32:31;;;;;;;1.92;1.42;;;14.20;99.90;;;;;;4866044;29;20061;-86
2021/05/15 12:35:00;;;;;;;2.65;1.35;;;14.40;99.90;;;;;;4879680;29;20052;-86
2021/05/15 12:37:36;;;;;;;1.42;0.85;;;14.80;99.90;;;;;;4907950;29;20060;-86
2021/05/15 12:40:15;;;;;;;1.52;1.30;;;15.10;99.90;;;;;;4878364;29;20059;-84
2021/05/15 12:42:46;;;;;;;1.30;1.20;;;15.50;99.90;;;;;;4886196;29;20060;-86
2021/05/15 12:45:16;;;;;;;1.42;1.23;;;15.70;99.90;;;;;;4875853;29;20078;-85
2021/05/15 12:47:46;;;;;;;1.48;1.00;;;16.60;99.90;;;;;;4894615;29;20048;-86